createdAt,value
2023-05-09T00:00:52.410Z,13.84
2023-05-09T00:01:52.407Z,13.84
2023-05-09T00:02:52.384Z,13.81
2023-05-09T00:03:52.513Z,13.79
2023-05-09T00:04:52.400Z,13.75
2023-05-09T00:05:52.291Z,13.75
2023-05-09T00:06:52.376Z,13.71
2023-05-09T00:07:52.252Z,13.62
2023-05-09T00:08:52.205Z,13.61
2023-05-09T00:09:52.183Z,13.55
2023-05-09T00:10:52.163Z,13.66
2023-05-09T00:11:52.134Z,13.59
2023-05-09T00:12:52.127Z,13.51
2023-05-09T00:13:52.087Z,13.48
2023-05-09T00:14:52.053Z,13.43
2023-05-09T00:15:52.039Z,13.39
2023-05-09T00:16:52.026Z,13.41
2023-05-09T00:17:52.019Z,13.32
2023-05-09T00:18:51.957Z,13.29
2023-05-09T00:19:51.929Z,13.31
2023-05-09T00:20:51.907Z,13.25
2023-05-09T00:21:51.882Z,13.21
2023-05-09T00:22:51.970Z,13.17
2023-05-09T00:23:51.835Z,13.16
2023-05-09T00:24:51.804Z,13.09
2023-05-09T00:25:51.783Z,13.12
2023-05-09T00:26:51.750Z,13.27
2023-05-09T00:27:51.733Z,13.17
2023-05-09T00:28:51.700Z,13.09
2023-05-09T00:29:51.684Z,13.17
2023-05-09T00:30:51.655Z,13.13
2023-05-09T00:31:51.652Z,13.06
2023-05-09T00:32:51.702Z,12.99
2023-05-09T00:33:51.577Z,13.04
2023-05-09T00:34:51.546Z,13.07
2023-05-09T00:35:51.525Z,12.99
2023-05-09T00:36:51.498Z,12.96
2023-05-09T00:37:51.487Z,13.03
2023-05-09T00:38:51.565Z,12.94
2023-05-09T00:39:51.421Z,12.91
2023-05-09T00:40:51.393Z,12.95
2023-05-09T00:41:51.373Z,12.89
2023-05-09T00:42:51.350Z,12.84
2023-05-09T00:43:51.345Z,12.85
2023-05-09T00:44:51.310Z,12.81
2023-05-09T00:45:51.330Z,12.81
2023-05-09T00:46:51.248Z,12.73
2023-05-09T00:47:51.236Z,12.73
2023-05-09T00:48:51.192Z,12.71
2023-05-09T00:49:51.173Z,12.63
2023-05-09T00:50:51.142Z,12.55
2023-05-09T00:51:51.120Z,12.59
2023-05-09T00:52:51.089Z,12.58
2023-05-09T00:53:51.062Z,12.61
2023-05-09T00:54:51.162Z,12.62
2023-05-09T00:55:51.013Z,12.58
2023-05-09T00:56:50.986Z,12.55
2023-05-09T00:57:50.962Z,12.62
2023-05-09T00:58:50.939Z,12.51
2023-05-09T00:59:50.913Z,12.55
2023-05-09T01:00:50.883Z,12.55
2023-05-09T01:01:50.872Z,12.55
2023-05-09T01:02:50.917Z,12.55
2023-05-09T01:03:50.856Z,12.59
2023-05-09T01:04:50.785Z,12.56
2023-05-09T01:05:50.759Z,12.54
2023-05-09T01:06:50.741Z,12.54
2023-05-09T01:07:50.701Z,12.51
2023-05-09T01:08:50.681Z,12.48
2023-05-09T01:09:50.662Z,12.49
2023-05-09T01:10:50.757Z,12.58
2023-05-09T01:11:50.607Z,12.54
2023-05-09T01:12:50.627Z,12.58
2023-05-09T01:13:50.551Z,12.61
2023-05-09T01:14:50.524Z,12.63
2023-05-09T01:15:50.501Z,12.66
2023-05-09T01:16:50.474Z,12.70
2023-05-09T01:17:50.470Z,12.71
2023-05-09T01:18:50.422Z,12.63
2023-05-09T01:19:50.397Z,12.77
2023-05-09T01:20:50.367Z,12.73
2023-05-09T01:21:50.344Z,12.69
2023-05-09T01:22:50.320Z,12.77
2023-05-09T01:23:50.293Z,12.73
2023-05-09T01:24:50.266Z,12.70
2023-05-09T01:25:50.243Z,12.62
2023-05-09T01:26:50.343Z,12.59
2023-05-09T01:27:50.189Z,12.58
2023-05-09T01:28:50.164Z,12.56
2023-05-09T01:29:50.145Z,12.69
2023-05-09T01:30:50.114Z,12.67
2023-05-09T01:31:50.226Z,12.73
2023-05-09T01:32:50.168Z,12.69
2023-05-09T01:33:50.031Z,12.67
2023-05-09T01:34:50.006Z,12.66
2023-05-09T01:35:49.980Z,12.59
2023-05-09T01:36:49.964Z,12.55
2023-05-09T01:37:49.935Z,12.52
2023-05-09T01:38:49.904Z,12.44
2023-05-09T01:39:49.933Z,12.34
2023-05-09T01:40:49.856Z,12.29
2023-05-09T01:41:49.836Z,12.25
2023-05-09T01:42:49.921Z,12.38
2023-05-09T01:43:49.830Z,12.49
2023-05-09T01:44:49.755Z,12.29
2023-05-09T01:45:49.723Z,12.34
2023-05-09T01:46:49.782Z,12.30
2023-05-09T01:47:49.776Z,12.30
2023-05-09T01:48:49.649Z,12.18
2023-05-09T01:49:49.618Z,12.22
2023-05-09T01:50:49.597Z,12.18
2023-05-09T01:51:49.566Z,12.19
2023-05-09T01:52:49.545Z,12.19
2023-05-09T01:53:49.515Z,12.21
2023-05-09T01:54:49.493Z,12.19
2023-05-09T01:55:49.465Z,12.18
2023-05-09T01:56:49.442Z,12.15
2023-05-09T01:57:49.415Z,12.13
2023-05-09T01:58:49.506Z,12.12
2023-05-09T01:59:49.356Z,12.11
2023-05-09T02:00:49.376Z,12.18
2023-05-09T02:01:49.354Z,12.08
2023-05-09T02:02:49.436Z,12.13
2023-05-09T02:03:49.256Z,12.08
2023-05-09T02:04:49.231Z,12.04
2023-05-09T02:05:49.205Z,12.01
2023-05-09T02:06:49.182Z,12.11
2023-05-09T02:07:49.150Z,12.04
2023-05-09T02:08:49.130Z,11.88
2023-05-09T02:09:49.097Z,11.96
2023-05-09T02:10:49.078Z,12.01
2023-05-09T02:11:49.044Z,11.98
2023-05-09T02:12:49.091Z,11.98
2023-05-09T02:13:48.995Z,11.87
2023-05-09T02:14:49.087Z,12.00
2023-05-09T02:15:48.956Z,12.03
2023-05-09T02:16:48.941Z,11.90
2023-05-09T02:17:48.962Z,11.87
2023-05-09T02:18:48.860Z,11.93
2023-05-09T02:19:48.842Z,11.85
2023-05-09T02:20:48.844Z,11.82
2023-05-09T02:21:48.785Z,11.85
2023-05-09T02:22:48.765Z,11.79
2023-05-09T02:23:48.730Z,11.79
2023-05-09T02:24:48.706Z,11.78
2023-05-09T02:25:48.677Z,11.82
2023-05-09T02:26:48.651Z,11.85
2023-05-09T02:27:48.622Z,11.77
2023-05-09T02:28:48.601Z,11.85
2023-05-09T02:29:48.580Z,11.82
2023-05-09T02:30:48.671Z,11.94
2023-05-09T02:31:48.633Z,11.82
2023-05-09T02:32:48.534Z,11.82
2023-05-09T02:33:48.466Z,11.90
2023-05-09T02:34:48.441Z,11.87
2023-05-09T02:35:48.516Z,11.82
2023-05-09T02:36:48.390Z,12.07
2023-05-09T02:37:48.363Z,12.04
2023-05-09T02:38:48.335Z,11.98
2023-05-09T02:39:48.312Z,12.01
2023-05-09T02:40:49.814Z,11.98
2023-05-09T02:41:48.257Z,12.03
2023-05-09T02:42:48.231Z,12.00
2023-05-09T02:43:48.210Z,12.04
2023-05-09T02:44:48.179Z,12.12
2023-05-09T02:45:48.174Z,12.03
2023-05-09T02:46:48.247Z,12.07
2023-05-09T02:47:48.164Z,12.13
2023-05-09T02:48:48.078Z,12.11
2023-05-09T02:49:48.048Z,12.16
2023-05-09T02:50:48.024Z,12.21
2023-05-09T02:51:48.001Z,12.21
2023-05-09T02:52:47.976Z,12.21
2023-05-09T02:53:47.946Z,12.15
2023-05-09T02:54:47.918Z,12.19
2023-05-09T02:55:47.896Z,12.16
2023-05-09T02:56:47.868Z,12.13
2023-05-09T02:57:48.384Z,12.13
2023-05-09T02:58:47.813Z,12.13
2023-05-09T02:59:47.789Z,12.13
2023-05-09T03:00:47.765Z,12.11
2023-05-09T03:01:47.756Z,12.12
2023-05-09T03:02:47.885Z,12.12
2023-05-09T03:03:47.859Z,12.18
2023-05-09T03:04:47.659Z,12.18
2023-05-09T03:05:47.637Z,12.18
2023-05-09T03:06:47.616Z,12.25
2023-05-09T03:07:47.580Z,12.31
2023-05-09T03:08:47.555Z,12.18
2023-05-09T03:09:47.527Z,12.21
2023-05-09T03:10:47.503Z,12.18
2023-05-09T03:11:47.477Z,12.26
2023-05-09T03:12:47.514Z,12.29
2023-05-09T03:13:47.433Z,12.33
2023-05-09T03:14:47.403Z,12.31
2023-05-09T03:15:47.408Z,12.29
2023-05-09T03:16:47.396Z,12.29
2023-05-09T03:17:47.342Z,12.40
2023-05-09T03:18:47.413Z,12.43
2023-05-09T03:19:47.267Z,12.52
2023-05-09T03:20:47.245Z,12.46
2023-05-09T03:21:47.220Z,12.44
2023-05-09T03:22:47.199Z,12.49
2023-05-09T03:23:47.174Z,12.51
2023-05-09T03:24:47.141Z,12.54
2023-05-09T03:25:47.115Z,12.46
2023-05-09T03:26:47.092Z,12.46
2023-05-09T03:27:47.060Z,12.44
2023-05-09T03:28:47.034Z,12.46
2023-05-09T03:29:47.008Z,12.48
2023-05-09T03:30:46.986Z,12.49
2023-05-09T03:31:47.097Z,12.52
2023-05-09T03:32:47.034Z,12.61
2023-05-09T03:33:46.908Z,12.58
2023-05-09T03:34:46.999Z,12.67
2023-05-09T03:35:46.854Z,12.71
2023-05-09T03:36:46.836Z,12.67
2023-05-09T03:37:46.815Z,12.73
2023-05-09T03:38:46.798Z,12.81
2023-05-09T03:39:46.752Z,12.84
2023-05-09T03:40:46.728Z,12.89
2023-05-09T03:41:46.696Z,12.80
2023-05-09T03:42:46.680Z,12.79
2023-05-09T03:43:46.654Z,12.88
2023-05-09T03:44:46.627Z,13.03
2023-05-09T03:45:46.601Z,12.89
2023-05-09T03:46:46.591Z,12.91
2023-05-09T03:47:46.565Z,13.04
2023-05-09T03:48:46.519Z,12.95
2023-05-09T03:49:46.499Z,13.03
2023-05-09T03:50:46.583Z,13.09
2023-05-09T03:51:46.441Z,13.09
2023-05-09T03:52:46.415Z,13.06
2023-05-09T03:53:46.394Z,13.06
2023-05-09T03:54:46.363Z,13.12
2023-05-09T03:55:46.343Z,13.14
2023-05-09T03:56:46.327Z,13.06
2023-05-09T03:57:46.320Z,13.17
2023-05-09T03:58:46.272Z,13.17
2023-05-09T03:59:46.238Z,13.21
2023-05-09T04:00:46.217Z,13.22
2023-05-09T04:01:46.213Z,13.31
2023-05-09T04:02:46.181Z,13.17
2023-05-09T04:03:46.259Z,13.25
2023-05-09T04:04:46.110Z,13.24
2023-05-09T04:05:46.082Z,13.25
2023-05-09T04:06:46.191Z,13.27
2023-05-09T04:07:46.031Z,13.25
2023-05-09T04:08:46.012Z,13.29
2023-05-09T04:09:45.982Z,13.29
2023-05-09T04:10:45.963Z,13.31
2023-05-09T04:11:45.935Z,13.31
2023-05-09T04:12:45.968Z,13.29
2023-05-09T04:13:45.907Z,13.38
2023-05-09T04:14:48.775Z,13.28
2023-05-09T04:15:45.832Z,13.35
2023-05-09T04:16:45.843Z,13.38
2023-05-09T04:17:45.826Z,13.35
2023-05-09T04:18:45.760Z,13.38
2023-05-09T04:19:45.728Z,13.39
2023-05-09T04:20:45.705Z,13.39
2023-05-09T04:21:45.678Z,13.43
2023-05-09T04:22:47.066Z,13.51
2023-05-09T04:23:45.626Z,13.46
2023-05-09T04:24:45.602Z,13.46
2023-05-09T04:25:45.578Z,13.47
2023-05-09T04:26:45.551Z,13.51
2023-05-09T04:27:45.532Z,13.51
2023-05-09T04:28:45.500Z,13.48
2023-05-09T04:29:45.473Z,13.54
2023-05-09T04:30:45.462Z,13.51
2023-05-09T04:31:45.576Z,13.53
2023-05-09T04:32:45.445Z,13.57
2023-05-09T04:33:45.373Z,13.55
2023-05-09T04:34:45.352Z,13.57
2023-05-09T04:35:45.321Z,13.59
2023-05-09T04:36:45.300Z,13.72
2023-05-09T04:37:45.273Z,13.75
2023-05-09T04:38:45.315Z,13.81
2023-05-09T04:39:45.221Z,13.73
2023-05-09T04:40:45.208Z,13.79
2023-05-09T04:41:45.170Z,13.86
2023-05-09T04:42:45.154Z,13.98
2023-05-09T04:43:45.132Z,13.93
2023-05-09T04:44:45.108Z,14.02
2023-05-09T04:45:45.072Z,13.98
2023-05-09T04:46:45.090Z,14.08
2023-05-09T04:47:45.046Z,14.12
2023-05-09T04:48:44.993Z,14.05
2023-05-09T04:49:44.974Z,14.17
2023-05-09T04:50:44.949Z,14.08
2023-05-09T04:51:44.920Z,14.09
2023-05-09T04:52:44.893Z,14.02
2023-05-09T04:53:44.867Z,14.12
2023-05-09T04:54:45.011Z,14.08
2023-05-09T04:55:44.823Z,14.17
2023-05-09T04:56:44.818Z,14.13
2023-05-09T04:57:44.770Z,14.11
2023-05-09T04:58:44.742Z,14.05
2023-05-09T04:59:44.722Z,14.09
2023-05-09T05:00:44.691Z,14.13
2023-05-09T05:01:44.687Z,14.06
2023-05-09T05:02:44.669Z,14.11
2023-05-09T05:03:44.627Z,14.16
2023-05-09T05:04:44.676Z,14.26
2023-05-09T05:05:44.639Z,14.27
2023-05-09T05:06:44.542Z,14.24
2023-05-09T05:07:44.517Z,14.35
2023-05-09T05:08:44.504Z,14.24
2023-05-09T05:09:44.468Z,14.30
2023-05-09T05:10:44.585Z,14.30
2023-05-09T05:11:57.045Z,14.41
2023-05-09T05:12:44.485Z,14.48
2023-05-09T05:13:44.370Z,14.49
2023-05-09T05:14:44.345Z,14.49
2023-05-09T05:15:44.428Z,14.56
2023-05-09T05:16:44.294Z,14.54
2023-05-09T05:17:44.272Z,14.56
2023-05-09T05:18:44.244Z,14.57
2023-05-09T05:19:44.216Z,14.60
2023-05-09T05:20:44.199Z,14.61
2023-05-09T05:21:44.187Z,14.57
2023-05-09T05:22:44.147Z,14.45
2023-05-09T05:23:44.126Z,14.53
2023-05-09T05:24:44.094Z,14.54
2023-05-09T05:25:44.072Z,14.61
2023-05-09T05:26:44.266Z,14.56
2023-05-09T05:27:44.039Z,14.44
2023-05-09T05:28:44.038Z,14.49
2023-05-09T05:29:43.975Z,14.56
2023-05-09T05:30:43.950Z,14.46
2023-05-09T05:31:43.942Z,14.41
2023-05-09T05:32:43.931Z,14.61
2023-05-09T05:33:43.871Z,14.64
2023-05-09T05:34:43.849Z,14.67
2023-05-09T05:35:43.823Z,14.74
2023-05-09T05:36:43.804Z,14.85
2023-05-09T05:37:43.768Z,14.83
2023-05-09T05:38:43.746Z,14.86
2023-05-09T05:39:43.733Z,14.80
2023-05-09T05:40:43.701Z,14.83
2023-05-09T05:41:43.675Z,14.93
2023-05-09T05:42:43.742Z,14.93
2023-05-09T05:43:43.623Z,14.94
2023-05-09T05:44:43.597Z,15.03
2023-05-09T05:45:43.621Z,15.07
2023-05-09T05:46:43.549Z,15.01
2023-05-09T05:47:43.547Z,15.13
2023-05-09T05:48:43.504Z,15.18
2023-05-09T05:49:43.479Z,15.15
2023-05-09T05:50:43.457Z,15.19
2023-05-09T05:51:43.429Z,15.13
2023-05-09T05:52:43.399Z,15.04
2023-05-09T05:53:43.391Z,15.12
2023-05-09T05:54:43.352Z,15.16
2023-05-09T05:55:43.329Z,15.12
2023-05-09T05:56:43.303Z,15.20
2023-05-09T05:57:43.276Z,15.18
2023-05-09T05:58:43.363Z,15.25
2023-05-09T05:59:43.230Z,15.04
2023-05-09T06:00:43.202Z,15.00
2023-05-09T06:01:43.308Z,15.03
2023-05-09T06:02:43.384Z,15.05
2023-05-09T06:03:43.275Z,14.97
2023-05-09T06:04:43.104Z,15.03
2023-05-09T06:05:43.079Z,15.12
2023-05-09T06:06:43.062Z,15.23
2023-05-09T06:07:43.038Z,15.20
2023-05-09T06:08:43.008Z,15.31
2023-05-09T06:09:42.985Z,15.41
2023-05-09T06:10:42.986Z,15.37
2023-05-09T06:11:42.934Z,15.44
2023-05-09T06:12:42.937Z,15.56
2023-05-09T06:13:42.881Z,15.58
2023-05-09T06:14:43.158Z,15.59
2023-05-09T06:15:42.845Z,15.68
2023-05-09T06:16:42.930Z,15.81
2023-05-09T06:17:42.820Z,15.81
2023-05-09T06:18:42.766Z,15.71
2023-05-09T06:19:42.739Z,15.58
2023-05-09T06:20:42.723Z,15.56
2023-05-09T06:21:42.690Z,15.62
2023-05-09T06:22:42.670Z,15.67
2023-05-09T06:23:57.185Z,15.74
2023-05-09T06:24:42.622Z,15.66
2023-05-09T06:25:42.613Z,15.37
2023-05-09T06:26:42.578Z,15.30
2023-05-09T06:27:42.546Z,15.46
2023-05-09T06:28:42.522Z,15.41
2023-05-09T06:29:42.506Z,15.48
2023-05-09T06:30:42.601Z,15.53
2023-05-09T06:31:42.496Z,15.59
2023-05-09T06:32:42.478Z,15.62
2023-05-09T06:33:42.404Z,15.66
2023-05-09T06:34:42.401Z,15.59
2023-05-09T06:35:42.358Z,15.76
2023-05-09T06:36:42.332Z,15.73
2023-05-09T06:37:42.310Z,15.80
2023-05-09T06:38:42.296Z,15.64
2023-05-09T06:39:42.263Z,15.71
2023-05-09T06:40:42.238Z,15.78
2023-05-09T06:41:42.213Z,15.85
2023-05-09T06:42:42.201Z,15.84
2023-05-09T06:43:42.165Z,15.88
2023-05-09T06:44:42.142Z,15.89
2023-05-09T06:45:42.118Z,15.81
2023-05-09T06:46:42.240Z,15.92
2023-05-09T06:47:42.096Z,15.89
2023-05-09T06:48:42.046Z,15.78
2023-05-09T06:49:42.027Z,15.80
2023-05-09T06:50:41.996Z,15.89
2023-05-09T06:51:41.978Z,15.99
2023-05-09T06:52:41.947Z,15.91
2023-05-09T06:53:41.925Z,16.01
2023-05-09T06:54:41.907Z,15.93
2023-05-09T06:55:41.883Z,16.06
2023-05-09T06:56:41.854Z,16.11
2023-05-09T06:57:41.844Z,15.99
2023-05-09T06:58:41.808Z,16.03
2023-05-09T06:59:41.784Z,16.16
2023-05-09T07:00:41.757Z,16.29
2023-05-09T07:01:41.758Z,16.54
2023-05-09T07:02:42.381Z,16.65
2023-05-09T07:03:41.688Z,16.69
2023-05-09T07:04:41.688Z,16.54
2023-05-09T07:05:41.641Z,16.55
2023-05-09T07:06:41.616Z,16.67
2023-05-09T07:07:41.604Z,16.81
2023-05-09T07:08:41.573Z,16.92
2023-05-09T07:09:41.545Z,16.75
2023-05-09T07:10:41.524Z,16.91
2023-05-09T07:11:41.498Z,17.05
2023-05-09T07:12:41.571Z,17.09
2023-05-09T07:13:41.456Z,17.03
2023-05-09T07:14:41.426Z,17.14
2023-05-09T07:15:42.991Z,17.02
2023-05-09T07:16:41.439Z,16.99
2023-05-09T07:17:41.405Z,16.95
2023-05-09T07:18:41.375Z,16.90
2023-05-09T07:19:41.317Z,16.80
2023-05-09T07:20:41.302Z,16.50
2023-05-09T07:21:41.270Z,16.26
2023-05-09T07:22:41.277Z,16.25
2023-05-09T07:23:41.218Z,16.50
2023-05-09T07:24:41.218Z,16.73
2023-05-09T07:25:41.175Z,16.90
2023-05-09T07:26:41.150Z,17.20
2023-05-09T07:27:41.126Z,17.43
2023-05-09T07:28:41.118Z,17.49
2023-05-09T07:29:41.081Z,17.65
2023-05-09T07:30:41.057Z,17.63
2023-05-09T07:31:41.076Z,17.73
2023-05-09T07:32:41.022Z,17.65
2023-05-09T07:33:40.996Z,17.65
2023-05-09T07:34:41.084Z,17.77
2023-05-09T07:35:40.944Z,17.77
2023-05-09T07:36:40.949Z,17.98
2023-05-09T07:37:40.892Z,17.98
2023-05-09T07:38:40.872Z,17.95
2023-05-09T07:39:40.851Z,18.07
2023-05-09T07:40:40.822Z,18.11
2023-05-09T07:41:40.811Z,18.17
2023-05-09T07:42:40.776Z,18.28
2023-05-09T07:43:40.761Z,18.17
2023-05-09T07:44:40.734Z,18.23
2023-05-09T07:45:40.871Z,18.25
2023-05-09T07:46:40.688Z,18.31
2023-05-09T07:47:40.706Z,18.17
2023-05-09T07:48:40.643Z,18.39
2023-05-09T07:49:40.647Z,18.42
2023-05-09T07:50:40.780Z,18.38
2023-05-09T07:51:40.572Z,18.46
2023-05-09T07:52:40.556Z,18.46
2023-05-09T07:53:40.530Z,18.46
2023-05-09T07:54:40.504Z,18.62
2023-05-09T07:55:40.493Z,18.44
2023-05-09T07:56:40.481Z,18.71
2023-05-09T07:57:40.439Z,18.76
2023-05-09T07:58:40.418Z,18.46
2023-05-09T07:59:40.415Z,18.39
2023-05-09T08:00:40.375Z,18.28
2023-05-09T08:01:40.368Z,18.38
2023-05-09T08:02:40.436Z,18.28
2023-05-09T08:03:40.338Z,17.96
2023-05-09T08:04:40.331Z,17.77
2023-05-09T08:05:40.261Z,17.91
2023-05-09T08:06:40.352Z,17.94
2023-05-09T08:07:40.216Z,17.84
2023-05-09T08:08:40.193Z,17.79
2023-05-09T08:09:40.176Z,17.98
2023-05-09T08:10:40.150Z,17.89
2023-05-09T08:11:40.133Z,17.84
2023-05-09T08:12:40.169Z,17.76
2023-05-09T08:13:40.086Z,17.73
2023-05-09T08:14:40.082Z,17.86
2023-05-09T08:15:40.084Z,18.09
2023-05-09T08:16:40.058Z,18.39
2023-05-09T08:17:40.077Z,18.74
2023-05-09T08:18:39.981Z,19.01
2023-05-09T08:19:39.955Z,19.12
2023-05-09T08:20:39.934Z,19.20
2023-05-09T08:21:39.924Z,19.15
2023-05-09T08:22:39.910Z,18.68
2023-05-09T08:23:39.879Z,18.23
2023-05-09T08:24:39.849Z,18.21
2023-05-09T08:25:39.829Z,18.20
2023-05-09T08:26:39.806Z,18.20
2023-05-09T08:27:39.800Z,18.36
2023-05-09T08:28:39.769Z,18.51
2023-05-09T08:29:39.742Z,18.44
2023-05-09T08:30:39.720Z,18.41
2023-05-09T08:31:39.728Z,18.56
2023-05-09T08:32:39.725Z,18.60
2023-05-09T08:33:41.781Z,18.50
2023-05-09T08:34:39.638Z,18.38
2023-05-09T08:35:39.616Z,18.31
2023-05-09T08:36:39.591Z,18.25
2023-05-09T08:37:39.571Z,18.23
2023-05-09T08:38:39.673Z,17.89
2023-05-09T08:39:39.530Z,17.91
2023-05-09T08:40:39.507Z,17.99
2023-05-09T08:41:39.485Z,18.05
2023-05-09T08:42:39.462Z,18.04
2023-05-09T08:43:39.442Z,18.13
2023-05-09T08:44:39.418Z,18.17
2023-05-09T08:45:39.393Z,18.44
2023-05-09T08:46:39.488Z,18.41
2023-05-09T08:47:39.406Z,18.19
2023-05-09T08:48:39.328Z,18.32
2023-05-09T08:49:39.305Z,18.44
2023-05-09T08:50:39.299Z,18.25
2023-05-09T08:51:39.267Z,17.98
2023-05-09T08:52:39.240Z,18.05
2023-05-09T08:53:39.224Z,17.76
2023-05-09T08:54:39.314Z,17.60
2023-05-09T08:55:39.174Z,17.63
2023-05-09T08:56:39.158Z,17.70
2023-05-09T08:57:39.129Z,17.57
2023-05-09T08:58:39.108Z,17.55
2023-05-09T08:59:39.086Z,17.66
2023-05-09T09:00:39.058Z,17.80
2023-05-09T09:01:39.092Z,17.99
2023-05-09T09:02:39.064Z,18.21
2023-05-09T09:03:38.998Z,18.26
2023-05-09T09:04:39.059Z,18.34
2023-05-09T09:05:41.215Z,18.26
2023-05-09T09:06:38.936Z,18.17
2023-05-09T09:07:38.907Z,18.14
2023-05-09T09:08:38.883Z,18.01
2023-05-09T09:09:38.860Z,17.98
2023-05-09T09:10:38.949Z,18.11
2023-05-09T09:11:38.981Z,18.07
2023-05-09T09:12:38.793Z,18.05
2023-05-09T09:13:38.782Z,17.96
2023-05-09T09:14:38.747Z,17.84
2023-05-09T09:15:38.730Z,17.86
2023-05-09T09:16:38.855Z,17.83
2023-05-09T09:17:38.702Z,17.74
2023-05-09T09:18:39.764Z,17.77
2023-05-09T09:19:38.639Z,17.83
2023-05-09T09:20:38.616Z,17.89
2023-05-09T09:21:38.616Z,17.86
2023-05-09T09:22:38.571Z,17.87
2023-05-09T09:23:38.585Z,17.96
2023-05-09T09:24:38.523Z,18.11
2023-05-09T09:25:38.508Z,18.31
2023-05-09T09:26:38.602Z,18.59
2023-05-09T09:27:38.456Z,18.75
2023-05-09T09:28:38.433Z,18.97
2023-05-09T09:29:38.430Z,18.93
2023-05-09T09:30:38.404Z,19.07
2023-05-09T09:31:38.409Z,18.93
2023-05-09T09:32:38.372Z,19.02
2023-05-09T09:33:38.323Z,18.89
2023-05-09T09:34:38.307Z,18.79
2023-05-09T09:35:38.281Z,19.05
2023-05-09T09:36:38.255Z,19.21
2023-05-09T09:37:38.236Z,19.58
2023-05-09T09:38:38.211Z,19.70
2023-05-09T09:39:38.212Z,20.00
2023-05-09T09:40:38.168Z,19.92
2023-05-09T09:41:38.214Z,20.01
2023-05-09T09:42:38.236Z,19.95
2023-05-09T09:43:38.107Z,19.92
2023-05-09T09:44:38.081Z,19.86
2023-05-09T09:45:38.114Z,19.97
2023-05-09T09:46:38.065Z,19.95
2023-05-09T09:47:38.038Z,20.17
2023-05-09T09:48:37.998Z,20.25
2023-05-09T09:49:37.972Z,20.53
2023-05-09T09:50:37.957Z,20.37
2023-05-09T09:51:37.929Z,20.38
2023-05-09T09:52:37.908Z,20.13
2023-05-09T09:53:37.883Z,20.17
2023-05-09T09:54:37.866Z,20.57
2023-05-09T09:55:37.860Z,20.71
2023-05-09T09:56:37.831Z,20.93
2023-05-09T09:57:37.798Z,21.15
2023-05-09T09:58:37.916Z,21.27
2023-05-09T09:59:37.758Z,21.15
2023-05-09T10:00:37.738Z,21.30
2023-05-09T10:01:37.732Z,21.53
2023-05-09T10:02:37.709Z,21.59
2023-05-09T10:03:37.789Z,21.01
2023-05-09T10:04:37.741Z,20.75
2023-05-09T10:05:37.635Z,20.41
2023-05-09T10:06:37.610Z,20.37
2023-05-09T10:07:37.597Z,20.13
2023-05-09T10:08:37.572Z,19.95
2023-05-09T10:09:37.550Z,20.23
2023-05-09T10:10:37.541Z,20.53
2023-05-09T10:11:37.508Z,20.68
2023-05-09T10:12:37.495Z,20.68
2023-05-09T10:13:37.479Z,20.46
2023-05-09T10:14:37.583Z,20.08
2023-05-09T10:15:49.377Z,20.12
2023-05-09T10:16:43.581Z,20.15
2023-05-09T10:17:37.644Z,20.15
2023-05-09T10:18:37.554Z,20.54
2023-05-09T10:19:37.357Z,20.76
2023-05-09T10:20:37.331Z,20.93
2023-05-09T10:21:38.001Z,20.96
2023-05-09T10:22:37.289Z,21.15
2023-05-09T10:23:37.266Z,21.38
2023-05-09T10:24:37.247Z,21.45
2023-05-09T10:25:37.225Z,21.38
2023-05-09T10:26:37.205Z,20.66
2023-05-09T10:27:37.193Z,20.27
2023-05-09T10:28:37.167Z,20.50
2023-05-09T10:29:37.158Z,20.63
2023-05-09T10:30:37.251Z,20.81
2023-05-09T10:31:37.139Z,20.54
2023-05-09T10:32:37.124Z,20.50
2023-05-09T10:33:37.064Z,20.61
2023-05-09T10:34:37.043Z,20.25
2023-05-09T10:35:37.034Z,19.72
2023-05-09T10:36:37.005Z,19.82
2023-05-09T10:37:36.989Z,20.13
2023-05-09T10:38:36.961Z,20.04
2023-05-09T10:39:36.944Z,20.02
2023-05-09T10:40:36.925Z,20.16
2023-05-09T10:41:36.922Z,20.07
2023-05-09T10:42:36.882Z,20.31
2023-05-09T10:43:36.969Z,20.58
2023-05-09T10:44:36.846Z,20.78
2023-05-09T10:45:36.836Z,20.76
2023-05-09T10:46:36.980Z,20.97
2023-05-09T10:47:36.800Z,20.85
2023-05-09T10:48:36.760Z,20.94
2023-05-09T10:49:37.411Z,20.97
2023-05-09T10:50:36.719Z,21.12
2023-05-09T10:51:36.699Z,21.26
2023-05-09T10:52:36.682Z,21.45
2023-05-09T10:53:36.658Z,21.45
2023-05-09T10:54:36.639Z,21.48
2023-05-09T10:55:36.617Z,21.64
2023-05-09T10:56:36.603Z,21.63
2023-05-09T10:57:36.587Z,21.94
2023-05-09T10:58:36.604Z,22.19
2023-05-09T10:59:36.581Z,21.90
2023-05-09T11:00:36.519Z,21.66
2023-05-09T11:01:36.602Z,21.91
2023-05-09T11:02:36.653Z,22.06
2023-05-09T11:03:36.551Z,22.24
2023-05-09T11:04:36.444Z,22.26
2023-05-09T11:05:36.424Z,22.46
2023-05-09T11:06:36.406Z,22.56
2023-05-09T11:07:36.386Z,22.74
2023-05-09T11:08:36.365Z,22.36
2023-05-09T11:09:36.348Z,22.15
2023-05-09T11:10:36.326Z,22.11
2023-05-09T11:11:36.308Z,21.99
2023-05-09T11:12:36.286Z,22.01
2023-05-09T11:13:36.307Z,21.93
2023-05-09T11:14:36.249Z,21.75
2023-05-09T11:15:36.237Z,21.56
2023-05-09T11:16:36.234Z,21.56
2023-05-09T11:17:36.228Z,21.67
2023-05-09T11:18:36.303Z,21.89
2023-05-09T11:19:36.156Z,21.91
2023-05-09T11:20:36.141Z,21.79
2023-05-09T11:21:36.118Z,21.89
2023-05-09T11:22:36.102Z,22.06
2023-05-09T11:23:36.082Z,22.19
2023-05-09T11:24:36.080Z,22.30
2023-05-09T11:25:36.037Z,22.39
2023-05-09T11:26:36.033Z,21.96
2023-05-09T11:27:36.003Z,21.68
2023-05-09T11:28:35.984Z,22.01
2023-05-09T11:29:35.963Z,21.94
2023-05-09T11:30:35.945Z,21.93
2023-05-09T11:31:35.970Z,21.86
2023-05-09T11:32:35.957Z,21.81
2023-05-09T11:33:35.887Z,21.71
2023-05-09T11:34:35.994Z,21.56
2023-05-09T11:35:35.852Z,21.45
2023-05-09T11:36:35.841Z,21.42
2023-05-09T11:37:35.812Z,21.61
2023-05-09T11:38:35.791Z,21.83
2023-05-09T11:39:35.773Z,21.90
2023-05-09T11:40:35.760Z,22.05
2023-05-09T11:41:35.736Z,21.63
2023-05-09T11:42:35.717Z,21.70
2023-05-09T11:43:35.701Z,21.85
2023-05-09T11:44:35.680Z,21.53
2023-05-09T11:45:35.713Z,21.09
2023-05-09T11:46:35.668Z,20.81
2023-05-09T11:47:35.652Z,21.12
2023-05-09T11:48:35.611Z,21.24
2023-05-09T11:49:35.585Z,21.51
2023-05-09T11:50:35.774Z,21.51
2023-05-09T11:51:35.545Z,21.91
2023-05-09T11:52:35.529Z,22.33
2023-05-09T11:53:35.507Z,22.60
2023-05-09T11:54:35.499Z,22.44
2023-05-09T11:55:35.470Z,22.45
2023-05-09T11:56:35.455Z,22.57
2023-05-09T11:57:35.433Z,22.33
2023-05-09T11:58:35.415Z,22.45
2023-05-09T11:59:35.401Z,22.48
2023-05-09T12:00:35.374Z,22.46
2023-05-09T12:01:35.355Z,22.30
2023-05-09T12:02:35.439Z,22.39
2023-05-09T12:03:35.427Z,22.51
2023-05-09T12:04:35.359Z,22.84
2023-05-09T12:05:35.295Z,22.74
2023-05-09T12:06:35.408Z,22.96
2023-05-09T12:07:35.249Z,22.46
2023-05-09T12:08:35.224Z,22.72
2023-05-09T12:09:35.216Z,22.66
2023-05-09T12:10:35.190Z,22.76
2023-05-09T12:11:35.193Z,22.51
2023-05-09T12:12:35.150Z,22.49
2023-05-09T12:13:35.132Z,22.56
2023-05-09T12:14:35.114Z,22.52
2023-05-09T12:15:35.093Z,22.72
2023-05-09T12:16:35.169Z,22.46
2023-05-09T12:17:35.095Z,22.48
2023-05-09T12:18:35.045Z,22.44
2023-05-09T12:19:35.017Z,22.33
2023-05-09T12:20:35.008Z,22.54
2023-05-09T12:21:34.981Z,22.57
2023-05-09T12:22:35.088Z,22.63
2023-05-09T12:23:34.948Z,22.78
2023-05-09T12:24:34.929Z,22.94
2023-05-09T12:25:34.932Z,22.63
2023-05-09T12:26:34.893Z,22.74
2023-05-09T12:27:34.872Z,22.97
2023-05-09T12:28:34.854Z,23.19
2023-05-09T12:29:34.838Z,23.44
2023-05-09T12:30:34.820Z,23.12
2023-05-09T12:31:34.845Z,23.09
2023-05-09T12:32:34.798Z,23.37
2023-05-09T12:33:34.772Z,23.49
2023-05-09T12:34:34.754Z,23.79
2023-05-09T12:35:34.730Z,23.63
2023-05-09T12:36:34.713Z,23.63
2023-05-09T12:37:34.701Z,23.45
2023-05-09T12:38:34.802Z,23.56
2023-05-09T12:39:34.656Z,23.56
2023-05-09T12:40:34.657Z,23.44
2023-05-09T12:41:41.369Z,23.22
2023-05-09T12:42:34.602Z,22.41
2023-05-09T12:43:34.587Z,21.59
2023-05-09T12:44:34.588Z,21.13
2023-05-09T12:45:34.546Z,21.21
2023-05-09T12:46:35.680Z,21.34
2023-05-09T12:47:34.539Z,21.56
2023-05-09T12:48:34.494Z,21.61
2023-05-09T12:49:34.473Z,21.08
2023-05-09T12:50:34.456Z,20.90
2023-05-09T12:51:34.439Z,20.91
2023-05-09T12:52:34.420Z,21.09